sensor_id;sensor_type;location;lat;lon;timestamp;temperature;humidity
44851;DHT22;30583;48.714;9.386;2023-02-15T00:01:43;2.80;73.00
44851;DHT22;30583;48.714;9.386;2023-02-15T00:04:09;2.80;73.20
44851;DHT22;30583;48.714;9.386;2023-02-15T00:06:35;2.60;73.50
44851;DHT22;30583;48.714;9.386;2023-02-15T00:09:02;2.80;73.10
44851;DHT22;30583;48.714;9.386;2023-02-15T00:11:28;3.00;72.60
44851;DHT22;30583;48.714;9.386;2023-02-15T00:14:11;3.20;71.50
44851;DHT22;30583;48.714;9.386;2023-02-15T00:16:38;2.60;73.20
44851;DHT22;30583;48.714;9.386;2023-02-15T00:19:04;2.60;73.80
44851;DHT22;30583;48.714;9.386;2023-02-15T00:21:31;2.60;73.80
44851;DHT22;30583;48.714;9.386;2023-02-15T00:24:00;2.40;73.60
44851;DHT22;30583;48.714;9.386;2023-02-15T00:26:26;2.10;75.00
44851;DHT22;30583;48.714;9.386;2023-02-15T00:28:52;2.50;73.80
44851;DHT22;30583;48.714;9.386;2023-02-15T00:31:18;2.20;74.40
44851;DHT22;30583;48.714;9.386;2023-02-15T00:33:44;2.60;74.10
44851;DHT22;30583;48.714;9.386;2023-02-15T00:36:10;2.70;73.70
44851;DHT22;30583;48.714;9.386;2023-02-15T00:38:36;2.50;72.90
44851;DHT22;30583;48.714;9.386;2023-02-15T00:41:04;2.30;74.30
44851;DHT22;30583;48.714;9.386;2023-02-15T00:43:31;2.20;73.80
44851;DHT22;30583;48.714;9.386;2023-02-15T00:45:57;2.50;73.60
44851;DHT22;30583;48.714;9.386;2023-02-15T00:48:23;2.40;73.00
44851;DHT22;30583;48.714;9.386;2023-02-15T00:50:51;2.40;73.60
44851;DHT22;30583;48.714;9.386;2023-02-15T00:53:17;2.40;72.90
44851;DHT22;30583;48.714;9.386;2023-02-15T00:55:43;2.20;73.60
44851;DHT22;30583;48.714;9.386;2023-02-15T00:58:09;2.40;73.40
44851;DHT22;30583;48.714;9.386;2023-02-15T01:00:36;2.50;72.50
44851;DHT22;30583;48.714;9.386;2023-02-15T01:03:02;2.40;72.60
44851;DHT22;30583;48.714;9.386;2023-02-15T01:05:28;2.10;73.60
44851;DHT22;30583;48.714;9.386;2023-02-15T01:07:55;2.00;74.30
44851;DHT22;30583;48.714;9.386;2023-02-15T01:10:21;2.10;74.10
44851;DHT22;30583;48.714;9.386;2023-02-15T01:12:46;2.20;73.60
44851;DHT22;30583;48.714;9.386;2023-02-15T01:15:12;2.30;73.10
44851;DHT22;30583;48.714;9.386;2023-02-15T01:17:38;2.40;72.80
44851;DHT22;30583;48.714;9.386;2023-02-15T01:20:04;2.40;72.80
44851;DHT22;30583;48.714;9.386;2023-02-15T01:22:30;2.40;73.00
44851;DHT22;30583;48.714;9.386;2023-02-15T01:24:55;2.30;72.90
44851;DHT22;30583;48.714;9.386;2023-02-15T01:27:21;1.80;74.10
44851;DHT22;30583;48.714;9.386;2023-02-15T01:29:46;2.20;73.30
44851;DHT22;30583;48.714;9.386;2023-02-15T01:32:12;2.20;73.20
44851;DHT22;30583;48.714;9.386;2023-02-15T01:34:38;1.80;74.00
44851;DHT22;30583;48.714;9.386;2023-02-15T01:37:04;2.20;73.70
44851;DHT22;30583;48.714;9.386;2023-02-15T01:39:29;1.70;74.10
44851;DHT22;30583;48.714;9.386;2023-02-15T01:41:55;1.60;74.90
44851;DHT22;30583;48.714;9.386;2023-02-15T01:47:10;1.70;74.60
44851;DHT22;30583;48.714;9.386;2023-02-15T01:49:38;1.80;74.90
44851;DHT22;30583;48.714;9.386;2023-02-15T01:52:07;1.70;74.40
44851;DHT22;30583;48.714;9.386;2023-02-15T01:54:34;1.60;75.40
44851;DHT22;30583;48.714;9.386;2023-02-15T01:57:04;2.10;74.50
44851;DHT22;30583;48.714;9.386;2023-02-15T01:59:32;2.00;72.90
44851;DHT22;30583;48.714;9.386;2023-02-15T02:01:59;1.70;74.10
44851;DHT22;30583;48.714;9.386;2023-02-15T02:04:33;1.20;75.20
44851;DHT22;30583;48.714;9.386;2023-02-15T02:07:00;1.10;75.90
44851;DHT22;30583;48.714;9.386;2023-02-15T02:09:26;1.30;75.80
44851;DHT22;30583;48.714;9.386;2023-02-15T02:11:52;1.60;75.00
44851;DHT22;30583;48.714;9.386;2023-02-15T02:14:20;1.90;73.60
44851;DHT22;30583;48.714;9.386;2023-02-15T02:29:21;1.60;73.50
44851;DHT22;30583;48.714;9.386;2023-02-15T02:38:00;1.10;74.90
44851;DHT22;30583;48.714;9.386;2023-02-15T02:40:35;1.20;75.50
44851;DHT22;30583;48.714;9.386;2023-02-15T02:43:32;1.30;75.30
44851;DHT22;30583;48.714;9.386;2023-02-15T02:46:07;1.10;76.00
44851;DHT22;30583;48.714;9.386;2023-02-15T02:48:33;1.60;74.70
44851;DHT22;30583;48.714;9.386;2023-02-15T02:50:59;2.00;73.40
44851;DHT22;30583;48.714;9.386;2023-02-15T02:53:26;1.70;72.80
44851;DHT22;30583;48.714;9.386;2023-02-15T02:56:01;1.40;74.00
44851;DHT22;30583;48.714;9.386;2023-02-15T02:58:46;1.80;73.00
44851;DHT22;30583;48.714;9.386;2023-02-15T03:01:16;1.60;72.80
44851;DHT22;30583;48.714;9.386;2023-02-15T03:03:51;1.30;73.50
44851;DHT22;30583;48.714;9.386;2023-02-15T03:06:51;1.50;73.90
44851;DHT22;30583;48.714;9.386;2023-02-15T03:09:27;1.60;72.70
44851;DHT22;30583;48.714;9.386;2023-02-15T03:12:00;1.00;74.40
44851;DHT22;30583;48.714;9.386;2023-02-15T03:14:27;0.90;74.50
44851;DHT22;30583;48.714;9.386;2023-02-15T03:16:54;1.00;75.40
44851;DHT22;30583;48.714;9.386;2023-02-15T03:19:26;0.90;75.00
44851;DHT22;30583;48.714;9.386;2023-02-15T03:21:58;1.10;74.80
44851;DHT22;30583;48.714;9.386;2023-02-15T03:24:41;1.20;74.30
44851;DHT22;30583;48.714;9.386;2023-02-15T03:27:15;1.40;74.60
44851;DHT22;30583;48.714;9.386;2023-02-15T03:29:44;1.50;73.20
44851;DHT22;30583;48.714;9.386;2023-02-15T03:32:11;1.30;74.10
44851;DHT22;30583;48.714;9.386;2023-02-15T03:34:40;1.70;72.70
44851;DHT22;30583;48.714;9.386;2023-02-15T03:37:58;1.60;72.40
44851;DHT22;30583;48.714;9.386;2023-02-15T03:40:16;1.20;73.70
44851;DHT22;30583;48.714;9.386;2023-02-15T03:43:32;1.00;74.30
44851;DHT22;30583;48.714;9.386;2023-02-15T03:45:57;1.20;74.10
44851;DHT22;30583;48.714;9.386;2023-02-15T03:48:32;0.90;74.80
44851;DHT22;30583;48.714;9.386;2023-02-15T03:51:02;1.00;75.20
44851;DHT22;30583;48.714;9.386;2023-02-15T03:53:52;1.10;75.00
44851;DHT22;30583;48.714;9.386;2023-02-15T03:56:19;1.20;74.20
44851;DHT22;30583;48.714;9.386;2023-02-15T03:58:45;1.20;74.00
44851;DHT22;30583;48.714;9.386;2023-02-15T04:01:35;1.20;73.90
44851;DHT22;30583;48.714;9.386;2023-02-15T04:04:35;1.10;74.10
44851;DHT22;30583;48.714;9.386;2023-02-15T04:07:02;1.30;73.50
44851;DHT22;30583;48.714;9.386;2023-02-15T04:09:28;1.20;73.70
44851;DHT22;30583;48.714;9.386;2023-02-15T04:12:12;1.00;74.20
44851;DHT22;30583;48.714;9.386;2023-02-15T04:14:38;1.20;73.70
44851;DHT22;30583;48.714;9.386;2023-02-15T04:17:22;1.20;73.90
44851;DHT22;30583;48.714;9.386;2023-02-15T04:19:47;1.20;73.80
44851;DHT22;30583;48.714;9.386;2023-02-15T04:22:31;1.00;74.20
44851;DHT22;30583;48.714;9.386;2023-02-15T04:25:16;1.00;74.70
44851;DHT22;30583;48.714;9.386;2023-02-15T04:27:44;0.90;74.80
44851;DHT22;30583;48.714;9.386;2023-02-15T04:30:12;1.00;74.40
44851;DHT22;30583;48.714;9.386;2023-02-15T04:32:38;0.80;74.40
44851;DHT22;30583;48.714;9.386;2023-02-15T04:35:05;0.60;74.90
44851;DHT22;30583;48.714;9.386;2023-02-15T04:37:31;0.90;73.90
44851;DHT22;30583;48.714;9.386;2023-02-15T04:39:57;1.00;73.40
44851;DHT22;30583;48.714;9.386;2023-02-15T04:42:24;0.70;74.20
44851;DHT22;30583;48.714;9.386;2023-02-15T04:44:50;0.70;75.30
44851;DHT22;30583;48.714;9.386;2023-02-15T04:47:16;0.90;74.60
44851;DHT22;30583;48.714;9.386;2023-02-15T04:49:41;1.00;74.10
44851;DHT22;30583;48.714;9.386;2023-02-15T04:52:07;1.20;73.60
44851;DHT22;30583;48.714;9.386;2023-02-15T04:54:32;1.30;72.50
44851;DHT22;30583;48.714;9.386;2023-02-15T04:56:58;0.70;73.20
44851;DHT22;30583;48.714;9.386;2023-02-15T04:59:24;0.80;74.00
44851;DHT22;30583;48.714;9.386;2023-02-15T05:01:49;0.70;73.60
44851;DHT22;30583;48.714;9.386;2023-02-15T05:04:15;0.80;73.80
44851;DHT22;30583;48.714;9.386;2023-02-15T05:06:40;0.50;74.50
44851;DHT22;30583;48.714;9.386;2023-02-15T05:09:06;0.80;73.70
44851;DHT22;30583;48.714;9.386;2023-02-15T05:11:31;0.60;74.50
44851;DHT22;30583;48.714;9.386;2023-02-15T05:13:57;0.60;74.70
44851;DHT22;30583;48.714;9.386;2023-02-15T05:16:23;1.00;73.20
44851;DHT22;30583;48.714;9.386;2023-02-15T05:18:49;0.80;73.90
44851;DHT22;30583;48.714;9.386;2023-02-15T05:21:14;1.10;73.00
44851;DHT22;30583;48.714;9.386;2023-02-15T05:23:42;0.80;73.00
44851;DHT22;30583;48.714;9.386;2023-02-15T05:26:10;0.50;73.70
44851;DHT22;30583;48.714;9.386;2023-02-15T05:28:55;0.60;74.10
44851;DHT22;30583;48.714;9.386;2023-02-15T05:31:21;0.70;74.30
44851;DHT22;30583;48.714;9.386;2023-02-15T05:33:46;0.90;73.90
44851;DHT22;30583;48.714;9.386;2023-02-15T05:36:12;0.70;74.00
44851;DHT22;30583;48.714;9.386;2023-02-15T05:38:38;0.70;74.20
44851;DHT22;30583;48.714;9.386;2023-02-15T05:41:08;0.80;73.40
44851;DHT22;30583;48.714;9.386;2023-02-15T05:43:34;0.70;74.10
44851;DHT22;30583;48.714;9.386;2023-02-15T05:46:00;0.90;73.40
44851;DHT22;30583;48.714;9.386;2023-02-15T05:48:26;0.70;73.50
44851;DHT22;30583;48.714;9.386;2023-02-15T05:51:08;0.70;73.70
44851;DHT22;30583;48.714;9.386;2023-02-15T05:53:36;0.60;74.00
44851;DHT22;30583;48.714;9.386;2023-02-15T05:56:03;0.50;73.70
44851;DHT22;30583;48.714;9.386;2023-02-15T05:58:32;0.50;74.20
44851;DHT22;30583;48.714;9.386;2023-02-15T06:00:58;0.40;74.60
44851;DHT22;30583;48.714;9.386;2023-02-15T06:03:24;0.30;74.90
44851;DHT22;30583;48.714;9.386;2023-02-15T06:05:51;0.60;74.80
44851;DHT22;30583;48.714;9.386;2023-02-15T06:08:17;0.80;74.40
44851;DHT22;30583;48.714;9.386;2023-02-15T06:10:44;0.40;75.00
44851;DHT22;30583;48.714;9.386;2023-02-15T06:13:10;0.60;74.20
44851;DHT22;30583;48.714;9.386;2023-02-15T06:15:36;0.90;72.90
44851;DHT22;30583;48.714;9.386;2023-02-15T06:18:01;0.60;73.20
44851;DHT22;30583;48.714;9.386;2023-02-15T06:20:27;0.30;74.30
44851;DHT22;30583;48.714;9.386;2023-02-15T06:22:53;0.00;74.70
44851;DHT22;30583;48.714;9.386;2023-02-15T06:25:18;-3276.50;76.00
44851;DHT22;30583;48.714;9.386;2023-02-15T06:27:44;-3276.60;77.70
44851;DHT22;30583;48.714;9.386;2023-02-15T06:30:10;0.20;75.90
44851;DHT22;30583;48.714;9.386;2023-02-15T06:32:36;0.00;75.40
44851;DHT22;30583;48.714;9.386;2023-02-15T06:35:02;0.20;75.80
44851;DHT22;30583;48.714;9.386;2023-02-15T06:37:27;0.10;75.50
44851;DHT22;30583;48.714;9.386;2023-02-15T06:39:53;1.40;80.20
44851;DHT22;30583;48.714;9.386;2023-02-15T06:42:18;2.20;74.90
44851;DHT22;30583;48.714;9.386;2023-02-15T06:44:44;2.20;71.50
44851;DHT22;30583;48.714;9.386;2023-02-15T06:47:11;2.20;71.20
44851;DHT22;30583;48.714;9.386;2023-02-15T06:49:37;2.20;70.30
44851;DHT22;30583;48.714;9.386;2023-02-15T06:52:03;2.10;70.00
44851;DHT22;30583;48.714;9.386;2023-02-15T06:54:29;2.10;69.80
44851;DHT22;30583;48.714;9.386;2023-02-15T06:56:54;1.00;71.60
44851;DHT22;30583;48.714;9.386;2023-02-15T06:59:20;0.60;74.20
44851;DHT22;30583;48.714;9.386;2023-02-15T07:01:46;0.70;73.80
44851;DHT22;30583;48.714;9.386;2023-02-15T07:04:11;0.50;74.20
44851;DHT22;30583;48.714;9.386;2023-02-15T07:06:37;0.40;75.10
44851;DHT22;30583;48.714;9.386;2023-02-15T07:09:03;0.60;74.90
44851;DHT22;30583;48.714;9.386;2023-02-15T07:11:29;0.70;74.20
44851;DHT22;30583;48.714;9.386;2023-02-15T07:14:13;0.40;75.00
44851;DHT22;30583;48.714;9.386;2023-02-15T07:16:39;0.70;74.80
44851;DHT22;30583;48.714;9.386;2023-02-15T07:19:05;0.60;73.40
44851;DHT22;30583;48.714;9.386;2023-02-15T07:21:30;0.40;75.60
44851;DHT22;30583;48.714;9.386;2023-02-15T07:23:57;0.10;75.80
44851;DHT22;30583;48.714;9.386;2023-02-15T07:26:24;0.10;76.90
44851;DHT22;30583;48.714;9.386;2023-02-15T07:28:50;0.60;75.10
44851;DHT22;30583;48.714;9.386;2023-02-15T07:31:16;0.30;74.60
44851;DHT22;30583;48.714;9.386;2023-02-15T07:33:41;0.40;75.60
44851;DHT22;30583;48.714;9.386;2023-02-15T07:36:08;0.40;75.30
44851;DHT22;30583;48.714;9.386;2023-02-15T07:38:38;0.80;74.90
44851;DHT22;30583;48.714;9.386;2023-02-15T07:41:06;0.90;73.60
44851;DHT22;30583;48.714;9.386;2023-02-15T07:43:35;0.90;74.30
44851;DHT22;30583;48.714;9.386;2023-02-15T07:46:06;1.00;73.50
44851;DHT22;30583;48.714;9.386;2023-02-15T07:48:33;1.30;73.00
44851;DHT22;30583;48.714;9.386;2023-02-15T07:51:02;1.10;73.70
44851;DHT22;30583;48.714;9.386;2023-02-15T07:53:29;0.80;74.50
44851;DHT22;30583;48.714;9.386;2023-02-15T07:55:57;1.20;74.00
44851;DHT22;30583;48.714;9.386;2023-02-15T07:58:23;1.00;74.80
44851;DHT22;30583;48.714;9.386;2023-02-15T08:01:08;0.70;75.10
44851;DHT22;30583;48.714;9.386;2023-02-15T08:03:34;0.90;75.00
44851;DHT22;30583;48.714;9.386;2023-02-15T08:06:00;0.60;75.90
44851;DHT22;30583;48.714;9.386;2023-02-15T08:08:26;0.80;75.70
44851;DHT22;30583;48.714;9.386;2023-02-15T08:13:47;1.00;75.20
44851;DHT22;30583;48.714;9.386;2023-02-15T08:16:20;1.10;75.40
44851;DHT22;30583;48.714;9.386;2023-02-15T08:18:46;1.10;76.70
44851;DHT22;30583;48.714;9.386;2023-02-15T08:21:12;1.20;75.00
44851;DHT22;30583;48.714;9.386;2023-02-15T08:23:37;1.20;75.10
44851;DHT22;30583;48.714;9.386;2023-02-15T08:26:03;1.20;75.20
44851;DHT22;30583;48.714;9.386;2023-02-15T08:28:30;1.40;75.30
44851;DHT22;30583;48.714;9.386;2023-02-15T08:30:55;1.80;73.90
44851;DHT22;30583;48.714;9.386;2023-02-15T08:33:21;1.60;73.80
44851;DHT22;30583;48.714;9.386;2023-02-15T08:35:47;1.80;73.90
44851;DHT22;30583;48.714;9.386;2023-02-15T08:38:13;2.00;73.60
44851;DHT22;30583;48.714;9.386;2023-02-15T08:40:38;1.70;74.30
44851;DHT22;30583;48.714;9.386;2023-02-15T08:43:04;1.70;74.90
44851;DHT22;30583;48.714;9.386;2023-02-15T08:45:29;1.90;74.50
44851;DHT22;30583;48.714;9.386;2023-02-15T08:47:55;2.20;74.00
44851;DHT22;30583;48.714;9.386;2023-02-15T08:50:20;2.30;73.60
44851;DHT22;30583;48.714;9.386;2023-02-15T08:52:46;2.40;73.20
44851;DHT22;30583;48.714;9.386;2023-02-15T08:55:11;2.40;73.10
44851;DHT22;30583;48.714;9.386;2023-02-15T08:57:37;2.70;72.70
44851;DHT22;30583;48.714;9.386;2023-02-15T09:00:04;2.90;72.20
44851;DHT22;30583;48.714;9.386;2023-02-15T09:02:30;2.90;71.90
44851;DHT22;30583;48.714;9.386;2023-02-15T09:04:55;2.70;72.20
44851;DHT22;30583;48.714;9.386;2023-02-15T09:07:21;2.60;72.70
44851;DHT22;30583;48.714;9.386;2023-02-15T09:09:46;2.60;73.10
44851;DHT22;30583;48.714;9.386;2023-02-15T09:12:12;2.70;73.40
44851;DHT22;30583;48.714;9.386;2023-02-15T09:14:38;3.00;72.70
44851;DHT22;30583;48.714;9.386;2023-02-15T09:17:03;3.20;71.70
44851;DHT22;30583;48.714;9.386;2023-02-15T09:19:29;2.90;73.00
44851;DHT22;30583;48.714;9.386;2023-02-15T09:21:54;2.90;73.00
44851;DHT22;30583;48.714;9.386;2023-02-15T09:24:20;3.00;73.10
44851;DHT22;30583;48.714;9.386;2023-02-15T09:26:47;3.10;73.50
44851;DHT22;30583;48.714;9.386;2023-02-15T09:29:13;3.40;72.70
44851;DHT22;30583;48.714;9.386;2023-02-15T09:31:48;3.50;72.90
44851;DHT22;30583;48.714;9.386;2023-02-15T09:34:15;3.60;72.20
44851;DHT22;30583;48.714;9.386;2023-02-15T09:36:42;4.10;71.30
44851;DHT22;30583;48.714;9.386;2023-02-15T09:39:24;4.10;70.70
44851;DHT22;30583;48.714;9.386;2023-02-15T09:53:07;5.60;66.60
44851;DHT22;30583;48.714;9.386;2023-02-15T10:00:57;7.10;61.50
44851;DHT22;30583;48.714;9.386;2023-02-15T10:03:42;7.40;61.60
44851;DHT22;30583;48.714;9.386;2023-02-15T10:11:53;8.40;57.90
44851;DHT22;30583;48.714;9.386;2023-02-15T10:23:16;9.10;56.10
44851;DHT22;30583;48.714;9.386;2023-02-15T10:28:51;9.00;55.90
44851;DHT22;30583;48.714;9.386;2023-02-15T10:34:30;9.50;54.70
44851;DHT22;30583;48.714;9.386;2023-02-15T10:45:46;10.40;52.30
44851;DHT22;30583;48.714;9.386;2023-02-15T10:48:28;10.50;51.80
44851;DHT22;30583;48.714;9.386;2023-02-15T10:51:00;10.80;51.60
44851;DHT22;30583;48.714;9.386;2023-02-15T10:53:58;10.80;50.60
44851;DHT22;30583;48.714;9.386;2023-02-15T10:56:38;11.40;50.20
44851;DHT22;30583;48.714;9.386;2023-02-15T10:59:28;11.90;49.50
44851;DHT22;30583;48.714;9.386;2023-02-15T11:02:27;12.10;48.80
44851;DHT22;30583;48.714;9.386;2023-02-15T11:05:26;11.60;49.60
44851;DHT22;30583;48.714;9.386;2023-02-15T11:07:57;12.10;48.50
44851;DHT22;30583;48.714;9.386;2023-02-15T11:13:09;12.70;47.20
44851;DHT22;30583;48.714;9.386;2023-02-15T11:15:56;12.70;46.50
44851;DHT22;30583;48.714;9.386;2023-02-15T11:18:49;12.90;46.30
44851;DHT22;30583;48.714;9.386;2023-02-15T11:23:51;13.10;45.80
44851;DHT22;30583;48.714;9.386;2023-02-15T11:26:28;13.20;45.20
44851;DHT22;30583;48.714;9.386;2023-02-15T11:29:40;13.50;44.70
44851;DHT22;30583;48.714;9.386;2023-02-15T11:32:21;13.70;44.20
44851;DHT22;30583;48.714;9.386;2023-02-15T11:40:22;14.40;42.70
44851;DHT22;30583;48.714;9.386;2023-02-15T11:42:52;14.60;42.30
44851;DHT22;30583;48.714;9.386;2023-02-15T11:45:31;14.40;41.90
44851;DHT22;30583;48.714;9.386;2023-02-15T11:47:58;14.40;42.10
44851;DHT22;30583;48.714;9.386;2023-02-15T11:50:29;14.30;42.00
44851;DHT22;30583;48.714;9.386;2023-02-15T11:53:12;14.30;42.10
44851;DHT22;30583;48.714;9.386;2023-02-15T11:55:38;14.70;41.70
44851;DHT22;30583;48.714;9.386;2023-02-15T11:58:14;14.80;41.50
44851;DHT22;30583;48.714;9.386;2023-02-15T12:00:44;15.20;41.50
44851;DHT22;30583;48.714;9.386;2023-02-15T12:03:51;15.30;41.00
44851;DHT22;30583;48.714;9.386;2023-02-15T12:06:23;15.30;40.90
44851;DHT22;30583;48.714;9.386;2023-02-15T12:08:55;15.60;39.80
44851;DHT22;30583;48.714;9.386;2023-02-15T12:11:34;15.40;39.70
44851;DHT22;30583;48.714;9.386;2023-02-15T12:14:04;15.80;38.20
44851;DHT22;30583;48.714;9.386;2023-02-15T12:16:34;15.70;38.20
44851;DHT22;30583;48.714;9.386;2023-02-15T12:19:05;16.10;37.70
44851;DHT22;30583;48.714;9.386;2023-02-15T12:21:34;16.50;36.80
44851;DHT22;30583;48.714;9.386;2023-02-15T12:24:30;16.30;36.80
44851;DHT22;30583;48.714;9.386;2023-02-15T12:29:46;16.40;36.40
44851;DHT22;30583;48.714;9.386;2023-02-15T12:32:23;16.70;36.50
44851;DHT22;30583;48.714;9.386;2023-02-15T12:34:51;16.50;35.70
44851;DHT22;30583;48.714;9.386;2023-02-15T12:37:26;16.60;35.90
44851;DHT22;30583;48.714;9.386;2023-02-15T12:39:58;16.90;35.00
44851;DHT22;30583;48.714;9.386;2023-02-15T12:42:25;16.90;34.60
44851;DHT22;30583;48.714;9.386;2023-02-15T12:45:01;16.90;34.70
44851;DHT22;30583;48.714;9.386;2023-02-15T12:47:29;16.40;35.50
44851;DHT22;30583;48.714;9.386;2023-02-15T12:50:08;16.50;35.50
44851;DHT22;30583;48.714;9.386;2023-02-15T12:52:42;16.50;36.40
44851;DHT22;30583;48.714;9.386;2023-02-15T12:55:22;17.40;35.40
44851;DHT22;30583;48.714;9.386;2023-02-15T12:57:48;17.50;35.40
44851;DHT22;30583;48.714;9.386;2023-02-15T13:02:49;16.90;35.80
44851;DHT22;30583;48.714;9.386;2023-02-15T13:08:19;17.50;35.40
44851;DHT22;30583;48.714;9.386;2023-02-15T13:10:57;17.70;35.60
44851;DHT22;30583;48.714;9.386;2023-02-15T13:13:27;18.00;34.70
44851;DHT22;30583;48.714;9.386;2023-02-15T13:16:04;17.80;34.70
44851;DHT22;30583;48.714;9.386;2023-02-15T13:18:35;17.90;34.90
44851;DHT22;30583;48.714;9.386;2023-02-15T13:21:20;17.90;35.20
44851;DHT22;30583;48.714;9.386;2023-02-15T13:24:17;18.40;34.50
44851;DHT22;30583;48.714;9.386;2023-02-15T13:26:46;18.70;33.60
44851;DHT22;30583;48.714;9.386;2023-02-15T13:29:21;18.50;34.30
44851;DHT22;30583;48.714;9.386;2023-02-15T13:31:49;18.50;33.90
44851;DHT22;30583;48.714;9.386;2023-02-15T13:34:20;18.30;34.10
44851;DHT22;30583;48.714;9.386;2023-02-15T13:39:38;18.40;34.70
44851;DHT22;30583;48.714;9.386;2023-02-15T13:42:22;18.80;33.70
44851;DHT22;30583;48.714;9.386;2023-02-15T13:45:07;19.30;32.90
44851;DHT22;30583;48.714;9.386;2023-02-15T13:48:07;19.40;33.20
44851;DHT22;30583;48.714;9.386;2023-02-15T13:59:51;20.10;32.60
44851;DHT22;30583;48.714;9.386;2023-02-15T14:08:01;19.90;33.10
44851;DHT22;30583;48.714;9.386;2023-02-15T14:10:45;19.20;34.20
44851;DHT22;30583;48.714;9.386;2023-02-15T14:16:27;19.50;33.70
44851;DHT22;30583;48.714;9.386;2023-02-15T14:21:49;20.10;32.70
44851;DHT22;30583;48.714;9.386;2023-02-15T14:29:57;20.10;33.50
44851;DHT22;30583;48.714;9.386;2023-02-15T14:32:38;20.30;33.60
44851;DHT22;30583;48.714;9.386;2023-02-15T14:35:13;19.90;34.20
44851;DHT22;30583;48.714;9.386;2023-02-15T14:43:27;20.70;33.40
44851;DHT22;30583;48.714;9.386;2023-02-15T14:46:02;20.70;33.30
44851;DHT22;30583;48.714;9.386;2023-02-15T14:48:37;20.70;33.20
44851;DHT22;30583;48.714;9.386;2023-02-15T14:51:04;20.40;33.50
44851;DHT22;30583;48.714;9.386;2023-02-15T14:58:37;20.50;33.80
44851;DHT22;30583;48.714;9.386;2023-02-15T15:01:10;20.70;33.30
44851;DHT22;30583;48.714;9.386;2023-02-15T15:03:36;20.10;33.70
44851;DHT22;30583;48.714;9.386;2023-02-15T15:06:27;20.00;34.50
44851;DHT22;30583;48.714;9.386;2023-02-15T15:08:58;20.30;34.40
44851;DHT22;30583;48.714;9.386;2023-02-15T15:13:58;20.40;34.10
44851;DHT22;30583;48.714;9.386;2023-02-15T15:18:53;19.60;35.20
44851;DHT22;30583;48.714;9.386;2023-02-15T15:21:51;20.10;34.50
44851;DHT22;30583;48.714;9.386;2023-02-15T15:35:53;19.00;36.80
44851;DHT22;30583;48.714;9.386;2023-02-15T15:46:46;18.70;37.40
44851;DHT22;30583;48.714;9.386;2023-02-15T15:49:19;18.70;37.70
44851;DHT22;30583;48.714;9.386;2023-02-15T15:51:46;18.10;38.60
44851;DHT22;30583;48.714;9.386;2023-02-15T15:54:23;18.10;38.90
44851;DHT22;30583;48.714;9.386;2023-02-15T15:57:00;17.90;38.70
44851;DHT22;30583;48.714;9.386;2023-02-15T15:59:29;17.40;39.10
44851;DHT22;30583;48.714;9.386;2023-02-15T16:01:56;17.30;40.10
44851;DHT22;30583;48.714;9.386;2023-02-15T16:04:31;17.00;40.80
44851;DHT22;30583;48.714;9.386;2023-02-15T16:07:03;16.10;42.40
44851;DHT22;30583;48.714;9.386;2023-02-15T16:09:38;15.70;43.20
44851;DHT22;30583;48.714;9.386;2023-02-15T16:12:04;15.20;44.50
44851;DHT22;30583;48.714;9.386;2023-02-15T16:14:40;14.60;45.70
44851;DHT22;30583;48.714;9.386;2023-02-15T16:17:13;14.60;46.10
44851;DHT22;30583;48.714;9.386;2023-02-15T16:19:41;14.60;46.20
44851;DHT22;30583;48.714;9.386;2023-02-15T16:22:18;14.00;47.20
44851;DHT22;30583;48.714;9.386;2023-02-15T16:27:48;13.70;48.10
44851;DHT22;30583;48.714;9.386;2023-02-15T16:32:43;13.40;48.70
44851;DHT22;30583;48.714;9.386;2023-02-15T16:35:14;13.40;48.90
44851;DHT22;30583;48.714;9.386;2023-02-15T16:37:40;13.20;49.20
44851;DHT22;30583;48.714;9.386;2023-02-15T16:40:11;13.00;50.10
44851;DHT22;30583;48.714;9.386;2023-02-15T16:43:15;13.20;49.70
44851;DHT22;30583;48.714;9.386;2023-02-15T16:45:42;13.30;49.40
44851;DHT22;30583;48.714;9.386;2023-02-15T16:48:19;13.20;49.60
44851;DHT22;30583;48.714;9.386;2023-02-15T16:50:51;12.80;50.40
44851;DHT22;30583;48.714;9.386;2023-02-15T16:53:25;12.90;50.10
44851;DHT22;30583;48.714;9.386;2023-02-15T16:55:54;12.70;50.70
44851;DHT22;30583;48.714;9.386;2023-02-15T16:58:26;12.70;50.60
44851;DHT22;30583;48.714;9.386;2023-02-15T17:00:56;12.40;51.60
44851;DHT22;30583;48.714;9.386;2023-02-15T17:03:24;12.10;52.70
44851;DHT22;30583;48.714;9.386;2023-02-15T17:05:55;12.20;52.50
44851;DHT22;30583;48.714;9.386;2023-02-15T17:08:41;12.10;52.20
44851;DHT22;30583;48.714;9.386;2023-02-15T17:11:22;12.00;52.20
44851;DHT22;30583;48.714;9.386;2023-02-15T17:16:50;11.30;53.80
44851;DHT22;30583;48.714;9.386;2023-02-15T17:19:26;11.00;54.90
44851;DHT22;30583;48.714;9.386;2023-02-15T17:21:58;10.80;55.40
44851;DHT22;30583;48.714;9.386;2023-02-15T17:25:00;10.60;56.20
44851;DHT22;30583;48.714;9.386;2023-02-15T17:27:28;10.40;56.70
44851;DHT22;30583;48.714;9.386;2023-02-15T17:30:01;10.10;57.70
44851;DHT22;30583;48.714;9.386;2023-02-15T17:32:30;9.90;58.00
44851;DHT22;30583;48.714;9.386;2023-02-15T17:40:00;9.90;58.00
44851;DHT22;30583;48.714;9.386;2023-02-15T17:42:26;9.80;58.00
44851;DHT22;30583;48.714;9.386;2023-02-15T17:44:52;9.70;58.70
44851;DHT22;30583;48.714;9.386;2023-02-15T17:47:22;9.60;58.50
44851;DHT22;30583;48.714;9.386;2023-02-15T17:49:49;9.40;59.20
44851;DHT22;30583;48.714;9.386;2023-02-15T17:52:16;9.30;59.60
44851;DHT22;30583;48.714;9.386;2023-02-15T17:54:43;9.40;59.60
44851;DHT22;30583;48.714;9.386;2023-02-15T17:57:28;9.10;59.60
44851;DHT22;30583;48.714;9.386;2023-02-15T17:59:55;9.20;60.00
44851;DHT22;30583;48.714;9.386;2023-02-15T18:02:40;9.10;60.20
44851;DHT22;30583;48.714;9.386;2023-02-15T18:05:24;8.90;60.60
44851;DHT22;30583;48.714;9.386;2023-02-15T18:08:17;8.70;61.30
44851;DHT22;30583;48.714;9.386;2023-02-15T18:11:02;8.70;60.90
44851;DHT22;30583;48.714;9.386;2023-02-15T18:13:46;8.70;61.40
44851;DHT22;30583;48.714;9.386;2023-02-15T18:16:14;8.20;62.50
44851;DHT22;30583;48.714;9.386;2023-02-15T18:18:41;8.20;63.00
44851;DHT22;30583;48.714;9.386;2023-02-15T18:21:07;8.10;63.50
44851;DHT22;30583;48.714;9.386;2023-02-15T18:23:32;8.40;62.30
44851;DHT22;30583;48.714;9.386;2023-02-15T18:25:58;8.30;62.30
44851;DHT22;30583;48.714;9.386;2023-02-15T18:28:24;8.40;62.00
44851;DHT22;30583;48.714;9.386;2023-02-15T18:30:49;8.50;61.60
44851;DHT22;30583;48.714;9.386;2023-02-15T18:33:33;8.30;61.70
44851;DHT22;30583;48.714;9.386;2023-02-15T18:36:02;7.90;63.00
44851;DHT22;30583;48.714;9.386;2023-02-15T18:38:29;8.00;63.20
44851;DHT22;30583;48.714;9.386;2023-02-15T18:40:54;8.10;62.50
44851;DHT22;30583;48.714;9.386;2023-02-15T18:43:20;7.80;63.40
44851;DHT22;30583;48.714;9.386;2023-02-15T18:45:45;7.90;63.20
44851;DHT22;30583;48.714;9.386;2023-02-15T18:48:11;7.70;63.30
44851;DHT22;30583;48.714;9.386;2023-02-15T18:50:37;7.40;64.10
44851;DHT22;30583;48.714;9.386;2023-02-15T18:53:05;7.50;64.30